Observation data for Post on 03/08/2018      Previous  Date  Next       Current Mesonet Observations  Soil Data  Daily Summary Page  Observations in Plain Language
KPT1 080600Z 13005KT 08/M12 A302 RMK A01 T00751115  RH  025%=      5-min Rain = 0
KPT1 080605Z 13004KT 07/M12 A302 RMK A01 T00741115  RH  025%=      5-min Rain = 0
KPT1 080610Z 15004KT 07/M11 A302 RMK A01 T00721114  RH  026%=      5-min Rain = 0
KPT1 080615Z 16004KT 07/M11 A302 RMK A01 T00711113  RH  026%=      5-min Rain = 0
KPT1 080620Z 17004KT 07/M11 A302 RMK A01 T00701112  RH  026%=      5-min Rain = 0
KPT1 080625Z 17004KT 07/M11 A3019 RMK A01 T00691110  RH  027%=      5-min Rain = 0
KPT1 080630Z 18003KT 07/M11 A3019 RMK A01 T00711111  RH  026%=      5-min Rain = 0
KPT1 080635Z 17003KT 07/M11 A3019 RMK A01 T00721112  RH  026%=      5-min Rain = 0
KPT1 080640Z 19003KT 07/M11 A3019 RMK A01 T00721112  RH  026%=      5-min Rain = 0
KPT1 080645Z 20003KT 07/M11 A3019 RMK A01 T00721111  RH  026%=      5-min Rain = 0
KPT1 080650Z 19002KT 07/M11 A3019 RMK A01 T00731111  RH  026%=      5-min Rain = 0
KPT1 080655Z 17002KT 08/M11 A3019 RMK A01 T00751111  RH  026%=      5-min Rain = 0
KPT1 080700Z 18002KT 08/M11 A3019 RMK A01 T00751111  RH  026%=      5-min Rain = 0
KPT1 080705Z 17002KT 08/M11 A3019 RMK A01 T00761111  RH  026%=      5-min Rain = 0
KPT1 080710Z 16002KT 08/M11 A3019 RMK A01 T00761111  RH  026%=      5-min Rain = 0
KPT1 080715Z 17002KT 08/M11 A3018 RMK A01 T00761111  RH  026%=      5-min Rain = 0
KPT1 080720Z 17002KT 08/M11 A3018 RMK A01 T00761110  RH  026%=      5-min Rain = 0
KPT1 080725Z 18002KT 08/M11 A3018 RMK A01 T00761110  RH  026%=      5-min Rain = 0
KPT1 080730Z 17002KT 08/M11 A3018 RMK A01 T00761110  RH  026%=      5-min Rain = 0
KPT1 080735Z 17001KT 08/M11 A3018 RMK A01 T00761110  RH  026%=      5-min Rain = 0
KPT1 080740Z 17001KT 08/M11 A3018 RMK A01 T00761110  RH  026%=      5-min Rain = 0
KPT1 080745Z 16000KT 07/M11 A3019 RMK A01 T00731110  RH  026%=      5-min Rain = 0
KPT1 080750Z 00000KT 07/M11 A3018 RMK A01 T00671112  RH  027%=      5-min Rain = 0
KPT1 080755Z 12001KT 07/M11 A3018 RMK A01 T00661113  RH  027%=      5-min Rain = 0
KPT1 080800Z 10001KT 07/M11 A3018 RMK A01 T00691112  RH  026%=      5-min Rain = 0
KPT1 080805Z 01000KT 07/M11 A3018 RMK A01 T00651113  RH  027%=      5-min Rain = 0
KPT1 080810Z 35002KT 06/M11 A3018 RMK A01 T00581111  RH  029%=      5-min Rain = 0
KPT1 080815Z 01002KT 06/M11 A3018 RMK A01 T00561108  RH  030%=      5-min Rain = 0
KPT1 080820Z 02002KT 06/M10 A3018 RMK A01 T00571101  RH  031%=      5-min Rain = 0
KPT1 080825Z 01002KT 06/M10 A3018 RMK A01 T00611097  RH  032%=      5-min Rain = 0
KPT1 080830Z 01002KT 06/M10 A3018 RMK A01 T00621099  RH  031%=      5-min Rain = 0
KPT1 080835Z 02002KT 06/M10 A3018 RMK A01 T00631099  RH  031%=      5-min Rain = 0
KPT1 080840Z 01002KT 06/M09 A3018 RMK A01 T00611091  RH  033%=      5-min Rain = 0
KPT1 080845Z 01002KT 06/M10 A3018 RMK A01 T00601102  RH  031%=      5-min Rain = 0
KPT1 080850Z 02001KT 06/M11 A3017 RMK A01 T00591105  RH  030%=      5-min Rain = 0
KPT1 080855Z 00002KT 06/M10 A3017 RMK A01 T00621095  RH  032%=      5-min Rain = 0
KPT1 080900Z 00003KT 06/M10 A3017 RMK A01 T00621098  RH  031%=      5-min Rain = 0
KPT1 080905Z 36003KT 06/M10 A3017 RMK A01 T00591103  RH  031%=      5-min Rain = 0
KPT1 080910Z 35002KT 05/M11 A3017 RMK A01 T00541108  RH  030%=      5-min Rain = 0
KPT1 080915Z 34002KT 05/M11 A3017 RMK A01 T00511109  RH  031%=      5-min Rain = 0
KPT1 080920Z 34003KT 05/M11 A3017 RMK A01 T00501108  RH  031%=      5-min Rain = 0
KPT1 080925Z 35004KT 05/M11 A3017 RMK A01 T00501107  RH  032%=      5-min Rain = 0
KPT1 080930Z 34004KT 05/M11 A3017 RMK A01 T00471105  RH  033%=      5-min Rain = 0
KPT1 080935Z 34004KT 05/M11 A3017 RMK A01 T00461106  RH  032%=      5-min Rain = 0
KPT1 080940Z 34003KT 05/M11 A3017 RMK A01 T00461105  RH  033%=      5-min Rain = 0
KPT1 080945Z 32004KT 05/M11 A3016 RMK A01 T00451106  RH  033%=      5-min Rain = 0
KPT1 080950Z 32004KT 04/M11 A3016 RMK A01 T00441107  RH  033%=      5-min Rain = 0
KPT1 080955Z 33004KT 05/M11 A3017 RMK A01 T00451109  RH  032%=      5-min Rain = 0
KPT1 081000Z 33004KT 04/M11 A3017 RMK A01 T00421108  RH  033%=      5-min Rain = 0
KPT1 081005Z 32004KT 04/M11 A3017 RMK A01 T00411109  RH  033%=      5-min Rain = 0
KPT1 081010Z 32003KT 04/M11 A3017 RMK A01 T00421110  RH  032%=      5-min Rain = 0
KPT1 081015Z 33003KT 04/M11 A3017 RMK A01 T00441110  RH  032%=      5-min Rain = 0
KPT1 081020Z 33003KT 04/M11 A3017 RMK A01 T00441111  RH  032%=      5-min Rain = 0
KPT1 081025Z 32004KT 04/M11 A3017 RMK A01 T00441111  RH  032%=      5-min Rain = 0
KPT1 081030Z 32004KT 04/M11 A3017 RMK A01 T00441111  RH  032%=      5-min Rain = 0
KPT1 081035Z 34004KT 05/M11 A3017 RMK A01 T00451109  RH  032%=      5-min Rain = 0
KPT1 081040Z 34003KT 05/M11 A3017 RMK A01 T00461107  RH  032%=      5-min Rain = 0
KPT1 081045Z 32004KT 05/M11 A3017 RMK A01 T00461106  RH  033%=      5-min Rain = 0
KPT1 081050Z 31004KT 05/M10 A3017 RMK A01 T00461104  RH  033%=      5-min Rain = 0
KPT1 081055Z 31004KT 05/M11 A3017 RMK A01 T00471106  RH  032%=      5-min Rain = 0
KPT1 081100Z 31004KT 05/M11 A3016 RMK A01 T00471107  RH  032%=      5-min Rain = 0
KPT1 081105Z 31004KT 05/M11 A3016 RMK A01 T00481107  RH  032%=      5-min Rain = 0
KPT1 081110Z 31004KT 05/M11 A3017 RMK A01 T00491107  RH  032%=      5-min Rain = 0
KPT1 081115Z 29003KT 05/M11 A3016 RMK A01 T00511106  RH  032%=      5-min Rain = 0
KPT1 081120Z 28002KT 05/M10 A3016 RMK A01 T00531104  RH  032%=      5-min Rain = 0
KPT1 081125Z 29001KT 05/M10 A3016 RMK A01 T00541104  RH  031%=      5-min Rain = 0
KPT1 081130Z 30001KT 06/M10 A3016 RMK A01 T00561104  RH  031%=      5-min Rain = 0
KPT1 081135Z 31001KT 06/M10 A3016 RMK A01 T00561104  RH  031%=      5-min Rain = 0
KPT1 081140Z 32002KT 06/M10 A3016 RMK A01 T00571104  RH  031%=      5-min Rain = 0
KPT1 081145Z 32002KT 06/M10 A3016 RMK A01 T00581104  RH  031%=      5-min Rain = 0
KPT1 081150Z 31003KT 06/M10 A3016 RMK A01 T00571103  RH  031%=      5-min Rain = 0
KPT1 081155Z 30003KT 05/M10 A3017 RMK A01 T00491096  RH  035%=      5-min Rain = 0
KPT1 081200Z 30003KT 05/M10 A3016 RMK A01 T00461102  RH  034%=      5-min Rain = 0
KPT1 081205Z 29002KT 05/M10 A3016 RMK A01 T00491102  RH  033%=      5-min Rain = 0
KPT1 081210Z 24000KT 05/M10 A3016 RMK A01 T00501100  RH  033%=      5-min Rain = 0
KPT1 081215Z 17001KT 05/M10 A3016 RMK A01 T00501100  RH  033%=      5-min Rain = 0
KPT1 081220Z 17001KT 05/M10 A3016 RMK A01 T00501100  RH  033%=      5-min Rain = 0
KPT1 081225Z 17000KT 05/M10 A3016 RMK A01 T00501099  RH  033%=      5-min Rain = 0
KPT1 081230Z 00000KT 05/M10 A3016 RMK A01 T00531099  RH  033%=      5-min Rain = 0
KPT1 081235Z 15001KT 05/M10 A3016 RMK A01 T00511100  RH  033%=      5-min Rain = 0
KPT1 081240Z 17001KT 05/M10 A3016 RMK A01 T00521098  RH  033%=      5-min Rain = 0
KPT1 081245Z 18002KT 05/M10 A3016 RMK A01 T00531097  RH  033%=      5-min Rain = 0
KPT1 081250Z 18003KT 06/M10 A3016 RMK A01 T00571096  RH  033%=      5-min Rain = 0
KPT1 081255Z 16003KT 06/M10 A3016 RMK A01 T00571095  RH  033%=      5-min Rain = 0
KPT1 081300Z 15003KT 06/M10 A3017 RMK A01 T00561095  RH  033%=      5-min Rain = 0
KPT1 081305Z 11001KT 06/M10 A3017 RMK A01 T00551097  RH  033%=      5-min Rain = 0
KPT1 081310Z 12002KT 05/M10 A3017 RMK A01 T00531099  RH  033%=      5-min Rain = 0
KPT1 081315Z 14002KT 05/M10 A3017 RMK A01 T00511099  RH  033%=      5-min Rain = 0
KPT1 081320Z 14002KT 05/M10 A3017 RMK A01 T00541098  RH  033%=      5-min Rain = 0
KPT1 081325Z 16002KT 06/M10 A3017 RMK A01 T00561098  RH  033%=      5-min Rain = 0
KPT1 081330Z 16003KT 06/M10 A3017 RMK A01 T00561096  RH  033%=      5-min Rain = 0
KPT1 081335Z 15004KT 06/M10 A3016 RMK A01 T00561096  RH  033%=      5-min Rain = 0
KPT1 081340Z 14005KT 06/M09 A3016 RMK A01 T00551094  RH  034%=      5-min Rain = 0
KPT1 081345Z 15004KT 06/M09 A3016 RMK A01 T00571091  RH  034%=      5-min Rain = 0
KPT1 081350Z 15004KT 06/M09 A3016 RMK A01 T00611087  RH  034%=      5-min Rain = 0
KPT1 081355Z 16004KT 07/M08 A3016 RMK A01 T00661084  RH  034%=      5-min Rain = 0
KPT1 081400Z 16003KT 07/M08 A3016 RMK A01 T00671084  RH  034%=      5-min Rain = 0
KPT1 081405Z 16003KT 07/M08 A3016 RMK A01 T00671084  RH  034%=      5-min Rain = 0
KPT1 081410Z 18001KT 07/M08 A3016 RMK A01 T00681083  RH  034%=      5-min Rain = 0
KPT1 081415Z 16002KT 07/M08 A3016 RMK A01 T00701082  RH  033%=      5-min Rain = 0
KPT1 081420Z 15003KT 08/M08 A3016 RMK A01 T00761081  RH  032%=      5-min Rain = 0
KPT1 081425Z 15003KT 08/M08 A3017 RMK A01 T00821082  RH  031%=      5-min Rain = 0
KPT1 081430Z 17003KT 08/M08 A3017 RMK A01 T00821083  RH  030%=      5-min Rain = 0
KPT1 081435Z 18003KT 08/M08 A3017 RMK A01 T00821083  RH  031%=      5-min Rain = 0
KPT1 081440Z 16003KT 08/M08 A3017 RMK A01 T00841084  RH  030%=      5-min Rain = 0
KPT1 081445Z 16002KT 09/M08 A3017 RMK A01 T00901083  RH  029%=      5-min Rain = 0
KPT1 081450Z 18002KT 10/M08 A3017 RMK A01 T01021082  RH  027%=      5-min Rain = 0
KPT1 081455Z 17005KT 11/M08 A3017 RMK A01 T01081083  RH  026%=      5-min Rain = 0
KPT1 081500Z 18007G12KT 11/M09 A3017 RMK A01 T01081086  RH  025%=      5-min Rain = 0
KPT1 081505Z 19008KT 11/M09 A3017 RMK A01 T01081087  RH  025%=      5-min Rain = 0
KPT1 081510Z 18008KT 11/M09 A3017 RMK A01 T01081086  RH  025%=      5-min Rain = 0
KPT1 081515Z 18008KT 11/M09 A3017 RMK A01 T01141085  RH  024%=      5-min Rain = 0
KPT1 081520Z 18008KT 12/M09 A3017 RMK A01 T01191085  RH  023%=      5-min Rain = 0
KPT1 081525Z 18010G15KT 12/M09 A3017 RMK A01 T01221086  RH  023%=      5-min Rain = 0
KPT1 081530Z 18012KT 12/M09 A3016 RMK A01 T01191086  RH  023%=      5-min Rain = 0
KPT1 081535Z 18013G18KT 12/M09 A3016 RMK A01 T01181085  RH  024%=      5-min Rain = 0
KPT1 081540Z 18013KT 12/M08 A3015 RMK A01 T01241084  RH  023%=      5-min Rain = 0
KPT1 081545Z 18013KT 12/M08 A3015 RMK A01 T01171084  RH  024%=      5-min Rain = 0
KPT1 081550Z 18012G17KT 13/M08 A3015 RMK A01 T01251081  RH  023%=      5-min Rain = 0
KPT1 081555Z 18012G19KT 13/M08 A3015 RMK A01 T01341080  RH  022%=      5-min Rain = 0
KPT1 081600Z 19016G23KT 13/M08 A3015 RMK A01 T01341081  RH  022%=      5-min Rain = 0
KPT1 081605Z 20012G18KT 14/M08 A3015 RMK A01 T01401079  RH  021%=      5-min Rain = 0
KPT1 081610Z 19011G18KT 14/M08 A3014 RMK A01 T01441078  RH  021%=      5-min Rain = 0
KPT1 081615Z 17013G20KT 15/M08 A3014 RMK A01 T01451079  RH  021%=      5-min Rain = 0
KPT1 081620Z 19014KT 14/M08 A3014 RMK A01 T01441080  RH  021%=      5-min Rain = 0
KPT1 081625Z 19011G16KT 15/M08 A3014 RMK A01 T01471078  RH  021%=      5-min Rain = 0
KPT1 081630Z 18014G19KT 15/M08 A3013 RMK A01 T01511079  RH  020%=      5-min Rain = 0
KPT1 081635Z 19013G18KT 15/M08 A3013 RMK A01 T01481078  RH  020%=      5-min Rain = 0
KPT1 081640Z 19011KT 14/M08 A3013 RMK A01 T01441079  RH  021%=      5-min Rain = 0
KPT1 081645Z 18010G15KT 16/M08 A3013 RMK A01 T01561078  RH  019%=      5-min Rain = 0
KPT1 081650Z 19011G17KT 16/M08 A3013 RMK A01 T01561079  RH  019%=      5-min Rain = 0
KPT1 081655Z 19010KT 16/M08 A3013 RMK A01 T01581078  RH  019%=      5-min Rain = 0
KPT1 081700Z 19014KT 16/M08 A3012 RMK A01 T01591079  RH  019%=      5-min Rain = 0
KPT1 081705Z 19011G17KT 16/M08 A3012 RMK A01 T01611079  RH  019%=      5-min Rain = 0
KPT1 081710Z 17013KT 16/M08 A3012 RMK A01 T01641079  RH  018%=      5-min Rain = 0
KPT1 081715Z 18011G16KT 17/M08 A3012 RMK A01 T01671079  RH  018%=      5-min Rain = 0
KPT1 081720Z 18012KT 17/M08 A3011 RMK A01 T01671079  RH  018%=      5-min Rain = 0
KPT1 081725Z 18010G17KT 17/M08 A3011 RMK A01 T01721077  RH  018%=      5-min Rain = 0
KPT1 081730Z 18012G17KT 17/M08 A3011 RMK A01 T01721078  RH  018%=      5-min Rain = 0
KPT1 081735Z 18012G17KT 17/M08 A3011 RMK A01 T01741077  RH  017%=      5-min Rain = 0
KPT1 081740Z 18011G16KT 18/M08 A3011 RMK A01 T01801078  RH  017%=      5-min Rain = 0
KPT1 081745Z 18009G15KT 19/M08 A3011 RMK A01 T01871077  RH  016%=      5-min Rain = 0
KPT1 081750Z 19014G20KT 18/M08 A3011 RMK A01 T01821080  RH  016%=      5-min Rain = 0
KPT1 081755Z 19012G18KT 18/M08 A301 RMK A01 T01831080  RH  016%=      5-min Rain = 0
KPT1 081800Z 19013G18KT 19/M08 A301 RMK A01 T01861081  RH  016%=      5-min Rain = 0
KPT1 081805Z 17013G19KT 19/M08 A3009 RMK A01 T01901082  RH  015%=      5-min Rain = 0
KPT1 081810Z 18013G19KT 19/M08 A3009 RMK A01 T01931082  RH  015%=      5-min Rain = 0
KPT1 081815Z 19013G19KT 19/M08 A3008 RMK A01 T01911084  RH  015%=      5-min Rain = 0
KPT1 081820Z 19014G21KT 19/M09 A3008 RMK A01 T01861085  RH  015%=      5-min Rain = 0
KPT1 081825Z 19011G17KT 19/M09 A3008 RMK A01 T01901085  RH  015%=      5-min Rain = 0
KPT1 081830Z 20013G20KT 19/M09 A3007 RMK A01 T01921086  RH  015%=      5-min Rain = 0
KPT1 081835Z 18015G20KT 19/M09 A3007 RMK A01 T01931087  RH  014%=      5-min Rain = 0
KPT1 081840Z 18014KT 19/M09 A3007 RMK A01 T01901088  RH  015%=      5-min Rain = 0
KPT1 081845Z 17014G19KT 20/M09 A3006 RMK A01 T01961087  RH  014%=      5-min Rain = 0
KPT1 081850Z 18015G20KT 20/M09 A3006 RMK A01 T01951088  RH  014%=      5-min Rain = 0
KPT1 081855Z 18016G22KT 20/M09 A3005 RMK A01 T01951090  RH  014%=      5-min Rain = 0
KPT1 081900Z 19013G18KT 20/M09 A3005 RMK A01 T01951089  RH  014%=      5-min Rain = 0
KPT1 081905Z 20016G23KT 20/M09 A3004 RMK A01 T01971089  RH  014%=      5-min Rain = 0
KPT1 081910Z 18013G20KT 19/M09 A3004 RMK A01 T01931091  RH  014%=      5-min Rain = 0
KPT1 081915Z 19014G20KT 20/M09 A3004 RMK A01 T01991089  RH  014%=      5-min Rain = 0
KPT1 081920Z 19012G18KT 20/M09 A3004 RMK A01 T02031090  RH  013%=      5-min Rain = 0
KPT1 081925Z 19013G20KT 20/M09 A3003 RMK A01 T02041089  RH  013%=      5-min Rain = 0
KPT1 081930Z 20014G19KT 20/M09 A3003 RMK A01 T02011089  RH  013%=      5-min Rain = 0
KPT1 081935Z 18014G21KT 21/M09 A3003 RMK A01 T02101089  RH  013%=      5-min Rain = 0
KPT1 081940Z 18014G19KT 21/M09 A3002 RMK A01 T02121089  RH  013%=      5-min Rain = 0
KPT1 081945Z 18017G24KT 21/M09 A3002 RMK A01 T02131088  RH  013%=      5-min Rain = 0
KPT1 081950Z 18016G23KT 20/M09 A3002 RMK A01 T02041088  RH  013%=      5-min Rain = 0
KPT1 081955Z 19016G25KT 20/M09 A3001 RMK A01 T02001087  RH  014%=      5-min Rain = 0
KPT1 082000Z 18016G22KT 21/M09 A3001 RMK A01 T02051086  RH  014%=      5-min Rain = 0
KPT1 082005Z 18015G24KT 21/M09 A3001 RMK A01 T02061086  RH  013%=      5-min Rain = 0
KPT1 082010Z 18015G23KT 21/M09 A30 RMK A01 T02091085  RH  013%=      5-min Rain = 0
KPT1 082015Z 17016G22KT 21/M09 A30 RMK A01 T02091087  RH  013%=      5-min Rain = 0
KPT1 082020Z 18016G23KT 21/M09 A30 RMK A01 T02071087  RH  013%=      5-min Rain = 0
KPT1 082025Z 18015G22KT 21/M09 A2999 RMK A01 T02121086  RH  013%=      5-min Rain = 0
KPT1 082030Z 18014G24KT 21/M09 A2999 RMK A01 T02121085  RH  013%=      5-min Rain = 0
KPT1 082035Z 20015G21KT 21/M09 A2999 RMK A01 T02141085  RH  013%=      5-min Rain = 0
KPT1 082040Z 19012G17KT 22/M09 A2999 RMK A01 T02161086  RH  013%=      5-min Rain = 0
KPT1 082045Z 17014G20KT 22/M09 A2998 RMK A01 T02201086  RH  012%=      5-min Rain = 0
KPT1 082050Z 19012G18KT 22/M09 A2997 RMK A01 T02181087  RH  012%=      5-min Rain = 0
KPT1 082055Z 19015G21KT 22/M09 A2997 RMK A01 T02221085  RH  012%=      5-min Rain = 0
KPT1 082100Z 19014G22KT 22/M09 A2997 RMK A01 T02221085  RH  012%=      5-min Rain = 0
KPT1 082105Z 19013G20KT 22/M09 A2996 RMK A01 T02211086  RH  012%=      5-min Rain = 0
KPT1 082110Z 19013G19KT 22/M09 A2996 RMK A01 T02211087  RH  012%=      5-min Rain = 0
KPT1 082115Z 19013G18KT 22/M09 A2996 RMK A01 T02231087  RH  012%=      5-min Rain = 0
KPT1 082120Z 19015G22KT 22/M09 A2996 RMK A01 T02191089  RH  012%=      5-min Rain = 0
KPT1 082125Z 18015G22KT 22/M09 A2996 RMK A01 T02231089  RH  012%=      5-min Rain = 0
KPT1 082130Z 19016G26KT 22/M09 A2995 RMK A01 T02191090  RH  012%=      5-min Rain = 0
KPT1 082135Z 19014G20KT 22/M09 A2995 RMK A01 T02241089  RH  012%=      5-min Rain = 0
KPT1 082140Z 19015G22KT 23/M09 A2994 RMK A01 T02261089  RH  012%=      5-min Rain = 0
KPT1 082145Z 18015G25KT 23/M09 A2994 RMK A01 T02251089  RH  012%=      5-min Rain = 0
KPT1 082150Z 19015G25KT 23/M09 A2994 RMK A01 T02291089  RH  011%=      5-min Rain = 0
KPT1 082155Z 19014G22KT 23/M09 A2993 RMK A01 T02301089  RH  011%=      5-min Rain = 0
KPT1 082200Z 19016G23KT 23/M09 A2993 RMK A01 T02281089  RH  011%=      5-min Rain = 0
KPT1 082205Z 18015G22KT 22/M09 A2993 RMK A01 T02211090  RH  012%=      5-min Rain = 0
KPT1 082210Z 18016G23KT 22/M09 A2993 RMK A01 T02201089  RH  012%=      5-min Rain = 0
KPT1 082215Z 18018G23KT 22/M09 A2993 RMK A01 T02221088  RH  012%=      5-min Rain = 0
KPT1 082220Z 19016G22KT 22/M09 A2993 RMK A01 T02231088  RH  012%=      5-min Rain = 0
KPT1 082225Z 18015G24KT 23/M09 A2992 RMK A01 T02261089  RH  012%=      5-min Rain = 0
KPT1 082230Z 19016G24KT 23/M09 A2992 RMK A01 T02251088  RH  012%=      5-min Rain = 0
KPT1 082235Z 20015G21KT 22/M09 A2992 RMK A01 T02241089  RH  012%=      5-min Rain = 0
KPT1 082240Z 19015G24KT 22/M09 A2992 RMK A01 T02241089  RH  012%=      5-min Rain = 0
KPT1 082245Z 18015G20KT 22/M09 A2992 RMK A01 T02211090  RH  012%=      5-min Rain = 0
KPT1 082250Z 17012KT 22/M09 A2992 RMK A01 T02201091  RH  012%=      5-min Rain = 0
KPT1 082255Z 20011G17KT 23/M09 A2992 RMK A01 T02251089  RH  012%=      5-min Rain = 0
KPT1 082300Z 19015G21KT 22/M09 A2992 RMK A01 T02231090  RH  012%=      5-min Rain = 0
KPT1 082305Z 19014G19KT 22/M09 A2991 RMK A01 T02221089  RH  012%=      5-min Rain = 0
KPT1 082310Z 19013G19KT 22/M09 A2991 RMK A01 T02211090  RH  012%=      5-min Rain = 0
KPT1 082315Z 18011KT 22/M09 A2991 RMK A01 T02231089  RH  012%=      5-min Rain = 0
KPT1 082320Z 18014KT 22/M09 A2991 RMK A01 T02221090  RH  012%=      5-min Rain = 0
KPT1 082325Z 18012G17KT 22/M09 A2991 RMK A01 T02221090  RH  012%=      5-min Rain = 0
KPT1 082330Z 19013G20KT 22/M09 A2992 RMK A01 T02211089  RH  012%=      5-min Rain = 0
KPT1 082335Z 19014G20KT 22/M09 A2992 RMK A01 T02181089  RH  012%=      5-min Rain = 0
KPT1 082340Z 18014KT 22/M09 A2992 RMK A01 T02171089  RH  012%=      5-min Rain = 0
KPT1 082345Z 18014G19KT 22/M09 A2992 RMK A01 T02161088  RH  012%=      5-min Rain = 0
KPT1 082350Z 18015G20KT 21/M09 A2992 RMK A01 T02131088  RH  013%=      5-min Rain = 0
KPT1 082355Z 18013G19KT 21/M09 A2992 RMK A01 T02131088  RH  013%=      5-min Rain = 0
KPT1 090000Z 18014G21KT 21/M09 A2992 RMK A01 T02131088  RH  013%=      5-min Rain = 0
KPT1 090005Z 18013G18KT 21/M09 A2992 RMK A01 T02111087  RH  013%=      5-min Rain = 0
KPT1 090010Z 18012KT 21/M09 A2992 RMK A01 T02101087  RH  013%=      5-min Rain = 0
KPT1 090015Z 18013KT 21/M09 A2992 RMK A01 T02081086  RH  013%=      5-min Rain = 0
KPT1 090020Z 18013G18KT 21/M09 A2992 RMK A01 T02051085  RH  013%=      5-min Rain = 0
KPT1 090025Z 17014G19KT 20/M09 A2992 RMK A01 T02021085  RH  014%=      5-min Rain = 0
KPT1 090030Z 17013G18KT 20/M08 A2992 RMK A01 T02001084  RH  014%=      5-min Rain = 0
KPT1 090035Z 17014KT 20/M08 A2992 RMK A01 T01971084  RH  014%=      5-min Rain = 0
KPT1 090040Z 18012G17KT 20/M08 A2992 RMK A01 T01951083  RH  015%=      5-min Rain = 0
KPT1 090045Z 18012G17KT 19/M08 A2992 RMK A01 T01931082  RH  015%=      5-min Rain = 0
KPT1 090050Z 17010G15KT 19/M08 A2992 RMK A01 T01891081  RH  015%=      5-min Rain = 0
KPT1 090055Z 17011KT 19/M08 A2992 RMK A01 T01871081  RH  016%=      5-min Rain = 0
KPT1 090100Z 17011KT 18/M08 A2992 RMK A01 T01841081  RH  016%=      5-min Rain = 0
KPT1 090105Z 17009G14KT 18/M08 A2992 RMK A01 T01821080  RH  016%=      5-min Rain = 0
KPT1 090110Z 17009KT 18/M08 A2993 RMK A01 T01781080  RH  017%=      5-min Rain = 0
KPT1 090115Z 17009KT 18/M08 A2992 RMK A01 T01751079  RH  017%=      5-min Rain = 0
KPT1 090120Z 17009KT 17/M08 A2992 RMK A01 T01731078  RH  017%=      5-min Rain = 0
KPT1 090125Z 17009KT 17/M08 A2993 RMK A01 T01711076  RH  018%=      5-min Rain = 0
KPT1 090130Z 17009KT 17/M08 A2993 RMK A01 T01701075  RH  018%=      5-min Rain = 0
KPT1 090135Z 17008KT 17/M08 A2993 RMK A01 T01661075  RH  019%=      5-min Rain = 0
KPT1 090140Z 17008KT 16/M07 A2993 RMK A01 T01641074  RH  019%=      5-min Rain = 0
KPT1 090145Z 17009KT 16/M07 A2993 RMK A01 T01631073  RH  019%=      5-min Rain = 0
KPT1 090150Z 17011G16KT 16/M07 A2992 RMK A01 T01641072  RH  019%=      5-min Rain = 0
KPT1 090155Z 18014G19KT 17/M07 A2992 RMK A01 T01681073  RH  019%=      5-min Rain = 0
KPT1 090200Z 17012G18KT 17/M07 A2992 RMK A01 T01681074  RH  019%=      5-min Rain = 0
KPT1 090205Z 17014KT 17/M07 A2992 RMK A01 T01671074  RH  019%=      5-min Rain = 0
KPT1 090210Z 18014G21KT 17/M08 A2992 RMK A01 T01681075  RH  018%=      5-min Rain = 0
KPT1 090215Z 18014G19KT 17/M08 A2992 RMK A01 T01671075  RH  019%=      5-min Rain = 0
KPT1 090220Z 18014G19KT 17/M08 A2992 RMK A01 T01651075  RH  019%=      5-min Rain = 0
KPT1 090225Z 18014G20KT 16/M08 A2992 RMK A01 T01631075  RH  019%=      5-min Rain = 0
KPT1 090230Z 18014KT 16/M07 A2993 RMK A01 T01611074  RH  019%=      5-min Rain = 0
KPT1 090235Z 18013G18KT 16/M08 A2993 RMK A01 T01591075  RH  020%=      5-min Rain = 0
KPT1 090240Z 18014G19KT 16/M08 A2993 RMK A01 T01581075  RH  020%=      5-min Rain = 0
KPT1 090245Z 17013G18KT 16/M08 A2993 RMK A01 T01561075  RH  020%=      5-min Rain = 0
KPT1 090250Z 17013G18KT 16/M08 A2993 RMK A01 T01551075  RH  020%=      5-min Rain = 0
KPT1 090255Z 17013KT 15/M07 A2993 RMK A01 T01541074  RH  020%=      5-min Rain = 0
KPT1 090300Z 17012G17KT 15/M07 A2993 RMK A01 T01531074  RH  020%=      5-min Rain = 0
KPT1 090305Z 17012G18KT 15/M07 A2993 RMK A01 T01511074  RH  021%=      5-min Rain = 0
KPT1 090310Z 17011G16KT 15/M07 A2993 RMK A01 T01491073  RH  021%=      5-min Rain = 0
KPT1 090315Z 17011G16KT 15/M07 A2993 RMK A01 T01471072  RH  021%=      5-min Rain = 0
KPT1 090320Z 17010G16KT 15/M07 A2993 RMK A01 T01451072  RH  022%=      5-min Rain = 0
KPT1 090325Z 17010G15KT 14/M07 A2993 RMK A01 T01441071  RH  022%=      5-min Rain = 0
KPT1 090330Z 17011G17KT 14/M07 A2993 RMK A01 T01431070  RH  023%=      5-min Rain = 0
KPT1 090335Z 17013G18KT 14/M07 A2993 RMK A01 T01441067  RH  023%=      5-min Rain = 0
KPT1 090340Z 17013G18KT 14/M07 A2993 RMK A01 T01431066  RH  023%=      5-min Rain = 0
KPT1 090345Z 17012G20KT 14/M07 A2993 RMK A01 T01421065  RH  023%=      5-min Rain = 0
KPT1 090350Z 17013G19KT 14/M07 A2993 RMK A01 T01421065  RH  024%=      5-min Rain = 0
KPT1 090355Z 17013G19KT 14/M06 A2993 RMK A01 T01411064  RH  024%=      5-min Rain = 0
KPT1 090400Z 17013G18KT 14/M06 A2993 RMK A01 T01411063  RH  024%=      5-min Rain = 0
KPT1 090405Z 17014G20KT 14/M06 A2993 RMK A01 T01401062  RH  024%=      5-min Rain = 0
KPT1 090410Z 17015G24KT 14/M06 A2993 RMK A01 T01391063  RH  024%=      5-min Rain = 0
KPT1 090415Z 17015G20KT 14/M06 A2993 RMK A01 T01381063  RH  024%=      5-min Rain = 0
KPT1 090420Z 17013KT 14/M06 A2993 RMK A01 T01361062  RH  025%=      5-min Rain = 0
KPT1 090425Z 17012G18KT 13/M06 A2993 RMK A01 T01341061  RH  025%=      5-min Rain = 0
KPT1 090430Z 17011KT 13/M06 A2993 RMK A01 T01331059  RH  026%=      5-min Rain = 0
KPT1 090435Z 17012G21KT 13/M05 A2993 RMK A01 T01331054  RH  027%=      5-min Rain = 0
KPT1 090440Z 18013G19KT 14/M05 A2993 RMK A01 T01351051  RH  028%=      5-min Rain = 0
KPT1 090445Z 18013G18KT 13/M05 A2993 RMK A01 T01341048  RH  028%=      5-min Rain = 0
KPT1 090450Z 18012G18KT 13/M05 A2992 RMK A01 T01341046  RH  028%=      5-min Rain = 0
KPT1 090455Z 18013G19KT 13/M05 A2992 RMK A01 T01341045  RH  029%=      5-min Rain = 0
KPT1 090500Z 18012G20KT 13/M04 A2992 RMK A01 T01331044  RH  029%=      5-min Rain = 0
KPT1 090505Z 18013G18KT 13/M04 A2991 RMK A01 T01331043  RH  030%=      5-min Rain = 0
KPT1 090510Z 18013G19KT 13/M04 A2991 RMK A01 T01321041  RH  030%=      5-min Rain = 0
KPT1 090515Z 18014G20KT 13/M04 A2991 RMK A01 T01331040  RH  030%=      5-min Rain = 0
KPT1 090520Z 18013G19KT 13/M04 A2991 RMK A01 T01331039  RH  030%=      5-min Rain = 0
KPT1 090525Z 18013G18KT 13/M04 A2991 RMK A01 T01321039  RH  031%=      5-min Rain = 0
KPT1 090530Z 18012G17KT 13/M04 A2991 RMK A01 T01301038  RH  031%=      5-min Rain = 0
KPT1 090535Z 18014KT 13/M04 A2991 RMK A01 T01301037  RH  031%=      5-min Rain = 0
KPT1 090540Z 17014G19KT 13/M04 A2991 RMK A01 T01311036  RH  031%=      5-min Rain = 0
KPT1 090545Z 18013G18KT 13/M04 A2991 RMK A01 T01311035  RH  032%=      5-min Rain = 0
KPT1 090550Z 18014G19KT 13/M04 A299 RMK A01 T01301035  RH  032%=      5-min Rain = 0
KPT1 090555Z 18012G18KT 13/M03 A299 RMK A01 T01301034  RH  032%=      5-min Rain = 0

Page generated in 0.0268 seconds.